sensor_id;sensor_type;location;lat;lon;timestamp;pressure;altitude;pressure_sealevel;temperature;humidity
26112;BME280;13829;48.990;8.346;2022-10-31T00:00:41;100899.13;;;11.87;100.00
26112;BME280;13829;48.990;8.346;2022-10-31T00:03:08;100897.41;;;11.89;100.00
26112;BME280;13829;48.990;8.346;2022-10-31T00:05:40;100892.97;;;11.84;100.00
26112;BME280;13829;48.990;8.346;2022-10-31T00:08:08;100889.41;;;11.79;100.00
26112;BME280;13829;48.990;8.346;2022-10-31T00:10:38;100884.88;;;11.64;100.00
26112;BME280;13829;48.990;8.346;2022-10-31T00:13:05;100883.91;;;11.54;100.00
26112;BME280;13829;48.990;8.346;2022-10-31T00:15:33;100886.53;;;11.52;100.00
26112;BME280;13829;48.990;8.346;2022-10-31T00:18:00;100884.88;;;11.61;100.00
26112;BME280;13829;48.990;8.346;2022-10-31T00:20:27;100892.78;;;11.61;100.00
26112;BME280;13829;48.990;8.346;2022-10-31T00:22:57;100896.28;;;11.58;100.00
26112;BME280;13829;48.990;8.346;2022-10-31T00:25:25;100898.91;;;11.56;100.00
26112;BME280;13829;48.990;8.346;2022-10-31T00:27:52;100889.22;;;11.55;100.00
26112;BME280;13829;48.990;8.346;2022-10-31T00:30:19;100893.59;;;11.53;100.00
26112;BME280;13829;48.990;8.346;2022-10-31T00:32:46;100893.59;;;11.53;100.00
26112;BME280;13829;48.990;8.346;2022-10-31T00:35:13;100892.78;;;11.64;100.00
26112;BME280;13829;48.990;8.346;2022-10-31T00:37:40;100895.41;;;11.61;100.00
26112;BME280;13829;48.990;8.346;2022-10-31T00:40:10;100893.63;;;11.56;100.00
26112;BME280;13829;48.990;8.346;2022-10-31T00:42:39;100890.03;;;11.51;100.00
26112;BME280;13829;48.990;8.346;2022-10-31T00:45:08;100895.34;;;11.54;100.00
26112;BME280;13829;48.990;8.346;2022-10-31T00:47:35;100892.59;;;11.39;100.00
26112;BME280;13829;48.990;8.346;2022-10-31T00:50:02;100894.31;;;11.37;100.00
26112;BME280;13829;48.990;8.346;2022-10-31T00:52:29;100896.09;;;11.36;100.00
26112;BME280;13829;48.990;8.346;2022-10-31T00:57:33;100903.00;;;11.28;100.00
26112;BME280;13829;48.990;8.346;2022-10-31T01:00:00;100893.25;;;11.21;100.00
26112;BME280;13829;48.990;8.346;2022-10-31T01:02:27;100884.56;;;11.30;100.00
26112;BME280;13829;48.990;8.346;2022-10-31T01:04:54;100893.31;;;11.22;100.00
26112;BME280;13829;48.990;8.346;2022-10-31T01:07:21;100896.75;;;11.17;100.00
26112;BME280;13829;48.990;8.346;2022-10-31T01:09:48;100888.78;;;11.10;100.00
26112;BME280;13829;48.990;8.346;2022-10-31T01:12:15;100894.03;;;11.10;100.00
26112;BME280;13829;48.990;8.346;2022-10-31T01:14:45;100895.88;;;11.19;100.00
26112;BME280;13829;48.990;8.346;2022-10-31T01:17:12;100896.81;;;11.24;100.00
26112;BME280;13829;48.990;8.346;2022-10-31T01:19:39;100894.94;;;11.11;100.00
26112;BME280;13829;48.990;8.346;2022-10-31T01:22:06;100894.03;;;11.07;100.00
26112;BME280;13829;48.990;8.346;2022-10-31T01:24:33;100899.28;;;11.07;100.00
26112;BME280;13829;48.990;8.346;2022-10-31T01:27:00;100901.00;;;11.04;100.00
26112;BME280;13829;48.990;8.346;2022-10-31T01:29:27;100901.91;;;11.07;100.00
26112;BME280;13829;48.990;8.346;2022-10-31T01:31:55;100891.47;;;11.15;100.00
26112;BME280;13829;48.990;8.346;2022-10-31T01:34:22;100899.38;;;11.15;100.00
26112;BME280;13829;48.990;8.346;2022-10-31T01:36:49;100891.38;;;11.06;100.00
26112;BME280;13829;48.990;8.346;2022-10-31T01:39:18;100890.38;;;10.95;100.00
26112;BME280;13829;48.990;8.346;2022-10-31T01:41:47;100886.81;;;10.91;100.00
26112;BME280;13829;48.990;8.346;2022-10-31T01:44:55;100898.13;;;10.82;100.00
26112;BME280;13829;48.990;8.346;2022-10-31T01:47:43;100891.94;;;10.80;100.00
26112;BME280;13829;48.990;8.346;2022-10-31T01:50:24;100888.47;;;10.81;100.00
26112;BME280;13829;48.990;8.346;2022-10-31T01:52:55;100891.13;;;10.84;100.00
26112;BME280;13829;48.990;8.346;2022-10-31T01:55:27;100899.91;;;10.83;100.00
26112;BME280;13829;48.990;8.346;2022-10-31T01:58:01;100899.84;;;10.80;100.00
26112;BME280;13829;48.990;8.346;2022-10-31T02:00:31;100898.16;;;10.85;100.00
26112;BME280;13829;48.990;8.346;2022-10-31T02:03:00;100894.72;;;10.89;100.00
26112;BME280;13829;48.990;8.346;2022-10-31T02:05:30;100899.97;;;10.89;100.00
26112;BME280;13829;48.990;8.346;2022-10-31T02:08:03;100899.16;;;10.97;100.00
26112;BME280;13829;48.990;8.346;2022-10-31T02:10:33;100893.94;;;11.00;100.00
26112;BME280;13829;48.990;8.346;2022-10-31T02:13:04;100890.44;;;11.01;100.00
26112;BME280;13829;48.990;8.346;2022-10-31T02:15:32;100900.00;;;10.92;100.00
26112;BME280;13829;48.990;8.346;2022-10-31T02:18:03;100883.28;;;10.87;100.00
26112;BME280;13829;48.990;8.346;2022-10-31T02:20:39;100886.69;;;10.80;100.00
26112;BME280;13829;48.990;8.346;2022-10-31T02:26:41;100891.31;;;11.00;100.00
26112;BME280;13829;48.990;8.346;2022-10-31T02:32:42;100893.03;;;10.98;100.00
26112;BME280;13829;48.990;8.346;2022-10-31T02:35:21;100888.59;;;10.92;100.00
26112;BME280;13829;48.990;8.346;2022-10-31T02:38:09;100886.78;;;10.88;100.00
26112;BME280;13829;48.990;8.346;2022-10-31T02:40:49;100894.72;;;10.92;100.00
26112;BME280;13829;48.990;8.346;2022-10-31T02:43:23;100891.25;;;10.93;100.00
26112;BME280;13829;48.990;8.346;2022-10-31T02:46:03;100891.16;;;10.87;100.00
26112;BME280;13829;48.990;8.346;2022-10-31T02:48:39;100889.38;;;10.83;100.00
26112;BME280;13829;48.990;8.346;2022-10-31T02:51:09;100888.47;;;10.84;100.00
26112;BME280;13829;48.990;8.346;2022-10-31T02:53:38;100886.66;;;10.75;100.00
26112;BME280;13829;48.990;8.346;2022-10-31T02:56:11;100891.09;;;10.81;100.00
26112;BME280;13829;48.990;8.346;2022-10-31T02:58:43;100877.88;;;10.76;100.00
26112;BME280;13829;48.990;8.346;2022-10-31T03:01:53;100885.69;;;10.69;100.00
26112;BME280;13829;48.990;8.346;2022-10-31T03:07:47;100881.25;;;10.66;100.00
26112;BME280;13829;48.990;8.346;2022-10-31T03:10:27;100881.41;;;10.77;100.00
26112;BME280;13829;48.990;8.346;2022-10-31T03:13:06;100883.25;;;10.86;100.00
26112;BME280;13829;48.990;8.346;2022-10-31T03:15:39;100887.69;;;10.88;100.00
26112;BME280;13829;48.990;8.346;2022-10-31T03:18:13;100883.19;;;10.80;100.00
26112;BME280;13829;48.990;8.346;2022-10-31T03:20:49;100880.56;;;10.80;100.00
26112;BME280;13829;48.990;8.346;2022-10-31T03:23:19;100884.91;;;10.77;100.00
26112;BME280;13829;48.990;8.346;2022-10-31T03:25:50;100883.13;;;10.75;100.00
26112;BME280;13829;48.990;8.346;2022-10-31T03:28:23;100889.28;;;10.75;100.00
26112;BME280;13829;48.990;8.346;2022-10-31T03:30:54;100880.50;;;10.75;100.00
26112;BME280;13829;48.990;8.346;2022-10-31T03:33:29;;;;10.67;
26112;BME280;13829;48.990;8.346;2022-10-31T03:36:10;100878.63;;;10.66;100.00
26112;BME280;13829;48.990;8.346;2022-10-31T03:38:42;100879.47;;;10.64;100.00
26112;BME280;13829;48.990;8.346;2022-10-31T03:41:17;100870.69;;;10.62;100.00
26112;BME280;13829;48.990;8.346;2022-10-31T03:43:58;100874.19;;;10.60;100.00
26112;BME280;13829;48.990;8.346;2022-10-31T03:46:26;100874.94;;;10.50;100.00
26112;BME280;13829;48.990;8.346;2022-10-31T03:48:54;100871.31;;;10.42;100.00
26112;BME280;13829;48.990;8.346;2022-10-31T03:51:29;100877.38;;;10.36;100.00
26112;BME280;13829;48.990;8.346;2022-10-31T03:54:09;100877.50;;;10.47;100.00
26112;BME280;13829;48.990;8.346;2022-10-31T03:56:44;100867.06;;;10.50;100.00
26112;BME280;13829;48.990;8.346;2022-10-31T03:59:17;100867.84;;;10.46;100.00
26112;BME280;13829;48.990;8.346;2022-10-31T04:01:52;100869.72;;;10.53;100.00
26112;BME280;13829;48.990;8.346;2022-10-31T04:04:22;100869.63;;;10.47;100.00
26112;BME280;13829;48.990;8.346;2022-10-31T04:06:51;100872.25;;;10.46;100.00
26112;BME280;13829;48.990;8.346;2022-10-31T04:09:21;100869.53;;;10.41;100.00
26112;BME280;13829;48.990;8.346;2022-10-31T04:11:53;100869.44;;;10.35;100.00
26112;BME280;13829;48.990;8.346;2022-10-31T04:14:24;100874.63;;;10.28;100.00
26112;BME280;13829;48.990;8.346;2022-10-31T04:16:52;100873.81;;;10.33;100.00
26112;BME280;13829;48.990;8.346;2022-10-31T04:19:19;100871.16;;;10.33;100.00
26112;BME280;13829;48.990;8.346;2022-10-31T04:21:46;100873.72;;;10.26;100.00
26112;BME280;13829;48.990;8.346;2022-10-31T04:24:14;100864.03;;;10.24;100.00
26112;BME280;13829;48.990;8.346;2022-10-31T04:26:41;100875.41;;;10.21;100.00
26112;BME280;13829;48.990;8.346;2022-10-31T04:29:08;100879.88;;;10.28;100.00
26112;BME280;13829;48.990;8.346;2022-10-31T04:31:34;100878.97;;;10.25;100.00
26112;BME280;13829;48.990;8.346;2022-10-31T04:34:01;100877.97;;;10.18;100.00
26112;BME280;13829;48.990;8.346;2022-10-31T04:36:28;100870.06;;;10.18;100.00
26112;BME280;13829;48.990;8.346;2022-10-31T04:38:55;100865.72;;;10.17;100.00
26112;BME280;13829;48.990;8.346;2022-10-31T04:41:23;100866.50;;;10.11;100.00
26112;BME280;13829;48.990;8.346;2022-10-31T04:43:50;100861.16;;;10.07;100.00
26112;BME280;13829;48.990;8.346;2022-10-31T04:46:17;100865.50;;;10.03;100.00
26112;BME280;13829;48.990;8.346;2022-10-31T04:48:44;100862.03;;;10.06;100.00
26112;BME280;13829;48.990;8.346;2022-10-31T04:51:11;100856.94;;;10.18;100.00
26112;BME280;13829;48.990;8.346;2022-10-31T04:53:38;100862.06;;;10.09;100.00
26112;BME280;13829;48.990;8.346;2022-10-31T04:56:06;100866.38;;;10.04;100.00
26112;BME280;13829;48.990;8.346;2022-10-31T04:58:34;100858.53;;;10.07;100.00
26112;BME280;13829;48.990;8.346;2022-10-31T05:01:01;100860.22;;;10.02;100.00
26112;BME280;13829;48.990;8.346;2022-10-31T05:03:28;100855.84;;;10.02;100.00
26112;BME280;13829;48.990;8.346;2022-10-31T05:05:55;100853.22;;;10.01;100.00
26112;BME280;13829;48.990;8.346;2022-10-31T05:08:22;100854.22;;;10.12;100.00
26112;BME280;13829;48.990;8.346;2022-10-31T05:10:48;100842.69;;;10.01;100.00
26112;BME280;13829;48.990;8.346;2022-10-31T05:13:15;100847.22;;;10.11;100.00
26112;BME280;13829;48.990;8.346;2022-10-31T05:15:44;100849.78;;;10.08;100.00
26112;BME280;13829;48.990;8.346;2022-10-31T05:18:11;100848.94;;;10.09;100.00
26112;BME280;13829;48.990;8.346;2022-10-31T05:20:37;100844.41;;;9.99;100.00
26112;BME280;13829;48.990;8.346;2022-10-31T05:23:04;100849.66;;;9.97;100.00
26112;BME280;13829;48.990;8.346;2022-10-31T05:25:31;100856.50;;;9.87;100.00
26112;BME280;13829;48.990;8.346;2022-10-31T05:27:58;100845.06;;;9.85;100.00
26112;BME280;13829;48.990;8.346;2022-10-31T05:30:29;100849.34;;;9.77;100.00
26112;BME280;13829;48.990;8.346;2022-10-31T05:32:58;100845.81;;;9.75;100.00
26112;BME280;13829;48.990;8.346;2022-10-31T05:35:28;100855.34;;;9.70;100.00
26112;BME280;13829;48.990;8.346;2022-10-31T05:37:56;100852.66;;;9.65;100.00
26112;BME280;13829;48.990;8.346;2022-10-31T05:40:25;100849.28;;;9.74;100.00
26112;BME280;13829;48.990;8.346;2022-10-31T05:42:55;100847.66;;;9.82;100.00
26112;BME280;13829;48.990;8.346;2022-10-31T05:45:24;100845.06;;;9.84;100.00
26112;BME280;13829;48.990;8.346;2022-10-31T05:47:52;100847.59;;;9.77;100.00
26112;BME280;13829;48.990;8.346;2022-10-31T05:50:22;100846.44;;;9.60;100.00
26112;BME280;13829;48.990;8.346;2022-10-31T05:52:55;100846.41;;;9.57;100.00
26112;BME280;13829;48.990;8.346;2022-10-31T05:55:23;100861.34;;;9.62;100.00
26112;BME280;13829;48.990;8.346;2022-10-31T05:57:51;100854.38;;;9.61;100.00
26112;BME280;13829;48.990;8.346;2022-10-31T06:00:18;100848.31;;;9.69;100.00
26112;BME280;13829;48.990;8.346;2022-10-31T06:02:45;100847.34;;;9.62;100.00
26112;BME280;13829;48.990;8.346;2022-10-31T06:05:13;100838.56;;;9.60;100.00
26112;BME280;13829;48.990;8.346;2022-10-31T06:07:41;100843.19;;;9.75;100.00
26112;BME280;13829;48.990;8.346;2022-10-31T06:10:08;100843.38;;;9.87;100.00
26112;BME280;13829;48.990;8.346;2022-10-31T06:12:36;100846.75;;;9.80;100.00
26112;BME280;13829;48.990;8.346;2022-10-31T06:15:06;100852.78;;;9.73;100.00
26112;BME280;13829;48.990;8.346;2022-10-31T06:17:34;100847.47;;;9.70;100.00
26112;BME280;13829;48.990;8.346;2022-10-31T06:20:02;100840.66;;;9.81;100.00
26112;BME280;13829;48.990;8.346;2022-10-31T06:22:29;100847.88;;;9.94;100.00
26112;BME280;13829;48.990;8.346;2022-10-31T06:24:58;100844.59;;;10.11;100.00
26112;BME280;13829;48.990;8.346;2022-10-31T06:27:25;100851.59;;;10.12;100.00
26112;BME280;13829;48.990;8.346;2022-10-31T06:29:53;100853.44;;;10.18;100.00
26112;BME280;13829;48.990;8.346;2022-10-31T06:32:19;100844.75;;;10.23;100.00
26112;BME280;13829;48.990;8.346;2022-10-31T06:34:46;100844.75;;;10.23;100.00
26112;BME280;13829;48.990;8.346;2022-10-31T06:37:14;100850.13;;;10.31;100.00
26112;BME280;13829;48.990;8.346;2022-10-31T06:39:42;100847.81;;;10.56;100.00
26112;BME280;13829;48.990;8.346;2022-10-31T06:42:10;100849.66;;;10.63;100.00
26112;BME280;13829;48.990;8.346;2022-10-31T06:44:37;100844.72;;;10.89;100.00
26112;BME280;13829;48.990;8.346;2022-10-31T06:47:05;100847.28;;;10.86;100.00
26112;BME280;13829;48.990;8.346;2022-10-31T06:49:32;100851.63;;;10.81;100.00
26112;BME280;13829;48.990;8.346;2022-10-31T06:51:59;100842.09;;;10.91;100.00
26112;BME280;13829;48.990;8.346;2022-10-31T06:54:26;100851.13;;;11.15;100.00
26112;BME280;13829;48.990;8.346;2022-10-31T06:56:53;100847.69;;;11.26;100.00
26112;BME280;13829;48.990;8.346;2022-10-31T06:59:21;100853.16;;;11.47;100.00
26112;BME280;13829;48.990;8.346;2022-10-31T07:01:49;100849.28;;;12.18;100.00
26112;BME280;13829;48.990;8.346;2022-10-31T07:04:16;100859.22;;;12.81;100.00
26112;BME280;13829;48.990;8.346;2022-10-31T07:06:43;100850.56;;;13.38;100.00
26112;BME280;13829;48.990;8.346;2022-10-31T07:09:10;100841.72;;;13.85;100.00
26112;BME280;13829;48.990;8.346;2022-10-31T07:11:37;100842.53;;;14.17;100.00
26112;BME280;13829;48.990;8.346;2022-10-31T07:14:04;100841.56;;;14.41;97.39
26112;BME280;13829;48.990;8.346;2022-10-31T07:16:33;100845.06;;;14.52;96.33
26112;BME280;13829;48.990;8.346;2022-10-31T07:19:00;100843.25;;;14.73;95.33
26112;BME280;13829;48.990;8.346;2022-10-31T07:21:26;100830.78;;;14.89;94.05
26112;BME280;13829;48.990;8.346;2022-10-31T07:23:53;100844.81;;;15.05;93.69
26112;BME280;13829;48.990;8.346;2022-10-31T07:26:20;100845.75;;;15.01;92.65
26112;BME280;13829;48.990;8.346;2022-10-31T07:28:47;100844.13;;;14.63;91.85
26112;BME280;13829;48.990;8.346;2022-10-31T07:31:14;100840.66;;;14.53;94.89
26112;BME280;13829;48.990;8.346;2022-10-31T07:33:42;100848.53;;;14.70;96.39
26112;BME280;13829;48.990;8.346;2022-10-31T07:36:09;100848.41;;;14.95;97.82
26112;BME280;13829;48.990;8.346;2022-10-31T07:38:36;100837.69;;;15.13;97.13
26112;BME280;13829;48.990;8.346;2022-10-31T07:41:03;100851.72;;;15.25;94.06
26112;BME280;13829;48.990;8.346;2022-10-31T07:43:30;100841.09;;;15.31;94.19
26112;BME280;13829;48.990;8.346;2022-10-31T07:45:57;100850.78;;;15.38;95.65
26112;BME280;13829;48.990;8.346;2022-10-31T07:48:24;100849.03;;;15.34;96.69
26112;BME280;13829;48.990;8.346;2022-10-31T07:50:52;100853.53;;;15.20;97.83
26112;BME280;13829;48.990;8.346;2022-10-31T07:53:19;100858.13;;;14.94;100.00
26112;BME280;13829;48.990;8.346;2022-10-31T07:55:46;100856.44;;;14.79;100.00
26112;BME280;13829;48.990;8.346;2022-10-31T07:58:15;100846.81;;;14.64;100.00
26112;BME280;13829;48.990;8.346;2022-10-31T08:00:44;100845.94;;;14.51;100.00
26112;BME280;13829;48.990;8.346;2022-10-31T08:03:13;100848.63;;;14.45;100.00
26112;BME280;13829;48.990;8.346;2022-10-31T08:05:41;100846.84;;;14.47;100.00
26112;BME280;13829;48.990;8.346;2022-10-31T08:08:09;100846.81;;;14.57;100.00
26112;BME280;13829;48.990;8.346;2022-10-31T08:10:36;100852.09;;;14.66;100.00
26112;BME280;13829;48.990;8.346;2022-10-31T08:13:06;100851.16;;;14.76;100.00
26112;BME280;13829;48.990;8.346;2022-10-31T08:15:34;100852.91;;;14.79;100.00
26112;BME280;13829;48.990;8.346;2022-10-31T08:18:04;100846.75;;;14.74;100.00
26112;BME280;13829;48.990;8.346;2022-10-31T08:20:31;100846.72;;;14.77;100.00
26112;BME280;13829;48.990;8.346;2022-10-31T08:23:00;100844.97;;;14.77;100.00
26112;BME280;13829;48.990;8.346;2022-10-31T08:25:31;100838.78;;;14.80;100.00
26112;BME280;13829;48.990;8.346;2022-10-31T08:27:58;100839.69;;;14.77;100.00
26112;BME280;13829;48.990;8.346;2022-10-31T08:30:28;100839.69;;;14.74;100.00
26112;BME280;13829;48.990;8.346;2022-10-31T08:33:01;100845.03;;;14.62;100.00
26112;BME280;13829;48.990;8.346;2022-10-31T08:35:28;100840.59;;;14.73;100.00
26112;BME280;13829;48.990;8.346;2022-10-31T08:37:56;100842.28;;;14.90;100.00
26112;BME280;13829;48.990;8.346;2022-10-31T08:40:24;100838.66;;;15.02;100.00
26112;BME280;13829;48.990;8.346;2022-10-31T08:43:01;100835.84;;;15.23;100.00
26112;BME280;13829;48.990;8.346;2022-10-31T08:45:30;100831.31;;;15.41;100.00
26112;BME280;13829;48.990;8.346;2022-10-31T08:47:58;100833.72;;;15.65;100.00
26112;BME280;13829;48.990;8.346;2022-10-31T08:50:26;100831.09;;;15.67;100.00
26112;BME280;13829;48.990;8.346;2022-10-31T08:52:53;100835.47;;;15.68;100.00
26112;BME280;13829;48.990;8.346;2022-10-31T08:55:20;100831.94;;;15.69;100.00
26112;BME280;13829;48.990;8.346;2022-10-31T08:57:47;100830.94;;;15.86;100.00
26112;BME280;13829;48.990;8.346;2022-10-31T09:00:16;100831.88;;;15.78;100.00
26112;BME280;13829;48.990;8.346;2022-10-31T09:02:43;100825.72;;;15.75;100.00
26112;BME280;13829;48.990;8.346;2022-10-31T09:05:10;100822.22;;;15.71;100.00
26112;BME280;13829;48.990;8.346;2022-10-31T09:07:37;100822.19;;;15.73;100.00
26112;BME280;13829;48.990;8.346;2022-10-31T09:10:04;100819.50;;;15.74;100.00
26112;BME280;13829;48.990;8.346;2022-10-31T09:12:31;100813.25;;;15.86;100.00
26112;BME280;13829;48.990;8.346;2022-10-31T09:14:58;100815.09;;;15.75;100.00
26112;BME280;13829;48.990;8.346;2022-10-31T09:17:27;100824.81;;;15.77;100.00
26112;BME280;13829;48.990;8.346;2022-10-31T09:19:54;100824.72;;;15.90;100.00
26112;BME280;13829;48.990;8.346;2022-10-31T09:22:22;100821.16;;;15.89;100.00
26112;BME280;13829;48.990;8.346;2022-10-31T09:24:49;100827.38;;;15.88;100.00
26112;BME280;13829;48.990;8.346;2022-10-31T09:27:16;100823.91;;;15.81;100.00
26112;BME280;13829;48.990;8.346;2022-10-31T09:29:43;100814.16;;;15.80;100.00
26112;BME280;13829;48.990;8.346;2022-10-31T09:32:10;100808.84;;;15.80;100.00
26112;BME280;13829;48.990;8.346;2022-10-31T09:34:38;100810.63;;;15.85;100.00
26112;BME280;13829;48.990;8.346;2022-10-31T09:37:05;100814.16;;;15.84;100.00
26112;BME280;13829;48.990;8.346;2022-10-31T09:39:32;100810.47;;;15.97;100.00
26112;BME280;13829;48.990;8.346;2022-10-31T09:42:20;100810.47;;;15.97;100.00
26112;BME280;13829;48.990;8.346;2022-10-31T09:45:02;100801.66;;;15.95;100.00
26112;BME280;13829;48.990;8.346;2022-10-31T09:47:45;100810.50;;;15.95;100.00
26112;BME280;13829;48.990;8.346;2022-10-31T09:50:23;100804.25;;;16.00;100.00
26112;BME280;13829;48.990;8.346;2022-10-31T09:52:59;100808.66;;;16.02;100.00
26112;BME280;13829;48.990;8.346;2022-10-31T09:55:36;100806.00;;;16.04;100.00
26112;BME280;13829;48.990;8.346;2022-10-31T09:58:04;100802.53;;;15.95;100.00
26112;BME280;13829;48.990;8.346;2022-10-31T10:00:31;100802.56;;;15.94;100.00
26112;BME280;13829;48.990;8.346;2022-10-31T10:03:11;100792.94;;;15.85;100.00
26112;BME280;13829;48.990;8.346;2022-10-31T10:05:53;100798.22;;;15.87;100.00
26112;BME280;13829;48.990;8.346;2022-10-31T10:08:28;100800.84;;;15.88;100.00
26112;BME280;13829;48.990;8.346;2022-10-31T10:11:08;100796.44;;;15.89;100.00
26112;BME280;13829;48.990;8.346;2022-10-31T10:13:56;100790.16;;;15.97;100.00
26112;BME280;13829;48.990;8.346;2022-10-31T10:16:47;100795.28;;;16.10;100.00
26112;BME280;13829;48.990;8.346;2022-10-31T10:19:43;100783.88;;;16.03;100.00
26112;BME280;13829;48.990;8.346;2022-10-31T10:22:27;100780.34;;;16.03;100.00
26112;BME280;13829;48.990;8.346;2022-10-31T10:25:14;100775.16;;;15.95;100.00
26112;BME280;13829;48.990;8.346;2022-10-31T10:28:12;100773.38;;;15.94;100.00
26112;BME280;13829;48.990;8.346;2022-10-31T10:30:48;100776.84;;;15.99;100.00
26112;BME280;13829;48.990;8.346;2022-10-31T10:33:21;100774.19;;;16.01;100.00
26112;BME280;13829;48.990;8.346;2022-10-31T10:35:54;100780.28;;;16.07;100.00
26112;BME280;13829;48.990;8.346;2022-10-31T10:38:30;100779.34;;;16.13;100.00
26112;BME280;13829;48.990;8.346;2022-10-31T10:41:17;100782.78;;;16.20;100.00
26112;BME280;13829;48.990;8.346;2022-10-31T10:43:45;100773.06;;;16.22;100.00
26112;BME280;13829;48.990;8.346;2022-10-31T10:46:21;100769.44;;;16.29;100.00
26112;BME280;13829;48.990;8.346;2022-10-31T10:49:16;100771.78;;;16.52;99.45
26112;BME280;13829;48.990;8.346;2022-10-31T10:51:47;100764.63;;;16.57;98.27
26112;BME280;13829;48.990;8.346;2022-10-31T10:54:49;100760.91;;;16.69;98.94
26112;BME280;13829;48.990;8.346;2022-10-31T10:57:41;100759.81;;;16.83;98.94
26112;BME280;13829;48.990;8.346;2022-10-31T11:00:20;100760.59;;;16.92;98.99
26112;BME280;13829;48.990;8.346;2022-10-31T11:02:48;100755.16;;;16.99;99.00
26112;BME280;13829;48.990;8.346;2022-10-31T11:05:30;100739.94;;;17.11;97.95
26112;BME280;13829;48.990;8.346;2022-10-31T11:07:59;100729.91;;;17.26;96.06
26112;BME280;13829;48.990;8.346;2022-10-31T11:10:28;100731.59;;;17.32;93.49
26112;BME280;13829;48.990;8.346;2022-10-31T11:13:06;100728.03;;;17.33;92.47
26112;BME280;13829;48.990;8.346;2022-10-31T11:15:49;100724.00;;;17.08;89.08
26112;BME280;13829;48.990;8.346;2022-10-31T11:18:22;100721.66;;;16.91;88.12
26112;BME280;13829;48.990;8.346;2022-10-31T11:20:53;100716.22;;;16.99;89.10
26112;BME280;13829;48.990;8.346;2022-10-31T11:23:23;100713.47;;;17.02;89.22
26112;BME280;13829;48.990;8.346;2022-10-31T11:25:56;100712.34;;;17.17;89.54
26112;BME280;13829;48.990;8.346;2022-10-31T11:28:24;100712.19;;;17.26;88.11
26112;BME280;13829;48.990;8.346;2022-10-31T11:30:54;100712.06;;;17.34;88.79
26112;BME280;13829;48.990;8.346;2022-10-31T11:33:29;100712.03;;;17.36;89.28
26112;BME280;13829;48.990;8.346;2022-10-31T11:35:58;100707.75;;;17.27;87.53
26112;BME280;13829;48.990;8.346;2022-10-31T11:38:35;100709.44;;;17.31;87.47
26112;BME280;13829;48.990;8.346;2022-10-31T11:41:12;100701.19;;;17.48;89.25
26112;BME280;13829;48.990;8.346;2022-10-31T11:43:54;100702.91;;;17.49;90.04
26112;BME280;13829;48.990;8.346;2022-10-31T11:46:34;100712.56;;;17.55;90.56
26112;BME280;13829;48.990;8.346;2022-10-31T11:49:03;100714.38;;;17.53;90.61
26112;BME280;13829;48.990;8.346;2022-10-31T11:51:34;100706.22;;;17.62;91.42
26112;BME280;13829;48.990;8.346;2022-10-31T11:54:03;100701.50;;;17.76;90.59
26112;BME280;13829;48.990;8.346;2022-10-31T11:56:41;100699.50;;;17.88;89.66
26112;BME280;13829;48.990;8.346;2022-10-31T11:59:22;100698.75;;;17.81;90.36
26112;BME280;13829;48.990;8.346;2022-10-31T12:01:52;100702.41;;;17.75;91.07
26112;BME280;13829;48.990;8.346;2022-10-31T12:04:29;100689.06;;;17.77;91.57
26112;BME280;13829;48.990;8.346;2022-10-31T12:06:58;100679.38;;;17.74;92.09
26112;BME280;13829;48.990;8.346;2022-10-31T12:09:28;100677.66;;;17.72;92.30
26112;BME280;13829;48.990;8.346;2022-10-31T12:12:23;100664.38;;;17.70;93.10
26112;BME280;13829;48.990;8.346;2022-10-31T12:15:07;100656.47;;;17.66;93.07
26112;BME280;13829;48.990;8.346;2022-10-31T12:17:46;100651.16;;;17.67;92.42
26112;BME280;13829;48.990;8.346;2022-10-31T12:20:25;100651.88;;;17.75;89.89
26112;BME280;13829;48.990;8.346;2022-10-31T12:23:03;100637.41;;;17.89;87.48
26112;BME280;13829;48.990;8.346;2022-10-31T12:25:42;100647.53;;;17.71;87.13
26112;BME280;13829;48.990;8.346;2022-10-31T12:28:44;100653.69;;;17.73;89.64
26112;BME280;13829;48.990;8.346;2022-10-31T12:31:35;100638.56;;;17.75;91.66
26112;BME280;13829;48.990;8.346;2022-10-31T12:34:38;100614.53;;;17.80;92.17
26112;BME280;13829;48.990;8.346;2022-10-31T12:37:22;100614.44;;;17.85;91.04
26112;BME280;13829;48.990;8.346;2022-10-31T12:40:07;100610.88;;;17.84;90.74
26112;BME280;13829;48.990;8.346;2022-10-31T12:42:56;100605.25;;;18.00;89.00
26112;BME280;13829;48.990;8.346;2022-10-31T12:45:43;100607.41;;;17.81;90.64
26112;BME280;13829;48.990;8.346;2022-10-31T12:48:30;100612.94;;;17.71;92.20
26112;BME280;13829;48.990;8.346;2022-10-31T12:51:07;100609.63;;;17.60;94.70
26112;BME280;13829;48.990;8.346;2022-10-31T12:53:59;100615.19;;;17.48;96.35
26112;BME280;13829;48.990;8.346;2022-10-31T12:56:52;100613.44;;;17.47;96.16
26112;BME280;13829;48.990;8.346;2022-10-31T12:59:31;100600.75;;;17.61;96.43
26112;BME280;13829;48.990;8.346;2022-10-31T13:02:14;100597.75;;;17.76;95.25
26112;BME280;13829;48.990;8.346;2022-10-31T13:04:50;100584.09;;;17.95;94.52
26112;BME280;13829;48.990;8.346;2022-10-31T13:07:24;100575.41;;;18.24;88.48
26112;BME280;13829;48.990;8.346;2022-10-31T13:09:59;100583.50;;;18.20;86.70
26112;BME280;13829;48.990;8.346;2022-10-31T13:12:31;100593.00;;;18.30;86.77
26112;BME280;13829;48.990;8.346;2022-10-31T13:15:05;100583.34;;;18.26;87.12
26112;BME280;13829;48.990;8.346;2022-10-31T13:17:46;100589.84;;;18.14;87.94
26112;BME280;13829;48.990;8.346;2022-10-31T13:20:23;100575.94;;;18.03;88.63